sensor_id;sensor_type;location;lat;lon;timestamp;temperature;humidity
20827;DHT22;10574;52.508;13.236;2022-11-20T00:01:22;0.20;99.90
20827;DHT22;10574;52.508;13.236;2022-11-20T00:03:52;0.20;99.90
20827;DHT22;10574;52.508;13.236;2022-11-20T00:06:21;0.20;99.90
20827;DHT22;10574;52.508;13.236;2022-11-20T00:08:49;0.20;99.90
20827;DHT22;10574;52.508;13.236;2022-11-20T00:11:19;0.20;99.90
20827;DHT22;10574;52.508;13.236;2022-11-20T00:13:49;0.20;99.90
20827;DHT22;10574;52.508;13.236;2022-11-20T00:16:20;0.20;99.90
20827;DHT22;10574;52.508;13.236;2022-11-20T00:18:48;0.20;99.90
20827;DHT22;10574;52.508;13.236;2022-11-20T00:21:23;0.20;99.90
20827;DHT22;10574;52.508;13.236;2022-11-20T00:23:53;0.20;99.90
20827;DHT22;10574;52.508;13.236;2022-11-20T00:26:23;0.20;99.90
20827;DHT22;10574;52.508;13.236;2022-11-20T00:28:53;0.20;99.90
20827;DHT22;10574;52.508;13.236;2022-11-20T00:31:21;0.20;99.90
20827;DHT22;10574;52.508;13.236;2022-11-20T00:33:50;0.20;99.90
20827;DHT22;10574;52.508;13.236;2022-11-20T00:36:20;0.30;99.90
20827;DHT22;10574;52.508;13.236;2022-11-20T00:38:52;0.20;99.90
20827;DHT22;10574;52.508;13.236;2022-11-20T00:41:21;0.20;99.90
20827;DHT22;10574;52.508;13.236;2022-11-20T00:43:48;0.20;99.90
20827;DHT22;10574;52.508;13.236;2022-11-20T00:46:18;0.20;99.90
20827;DHT22;10574;52.508;13.236;2022-11-20T00:48:47;0.20;99.90
20827;DHT22;10574;52.508;13.236;2022-11-20T00:51:17;0.30;99.90
20827;DHT22;10574;52.508;13.236;2022-11-20T00:53:46;0.30;99.90
20827;DHT22;10574;52.508;13.236;2022-11-20T00:56:16;0.30;99.90
20827;DHT22;10574;52.508;13.236;2022-11-20T00:58:46;0.30;99.90
20827;DHT22;10574;52.508;13.236;2022-11-20T01:01:24;0.20;99.90
20827;DHT22;10574;52.508;13.236;2022-11-20T01:03:50;0.20;99.90
20827;DHT22;10574;52.508;13.236;2022-11-20T01:06:20;0.20;99.90
20827;DHT22;10574;52.508;13.236;2022-11-20T01:08:49;0.30;99.90
20827;DHT22;10574;52.508;13.236;2022-11-20T01:11:20;0.20;99.90
20827;DHT22;10574;52.508;13.236;2022-11-20T01:13:49;0.20;99.90
20827;DHT22;10574;52.508;13.236;2022-11-20T01:16:20;0.20;99.90
20827;DHT22;10574;52.508;13.236;2022-11-20T01:18:50;0.20;99.90
20827;DHT22;10574;52.508;13.236;2022-11-20T01:21:24;0.20;99.90
20827;DHT22;10574;52.508;13.236;2022-11-20T01:23:52;0.20;99.90
20827;DHT22;10574;52.508;13.236;2022-11-20T01:26:22;0.20;99.90
20827;DHT22;10574;52.508;13.236;2022-11-20T01:28:50;0.10;99.90
20827;DHT22;10574;52.508;13.236;2022-11-20T01:31:23;0.20;99.90
20827;DHT22;10574;52.508;13.236;2022-11-20T01:33:54;0.20;99.90
20827;DHT22;10574;52.508;13.236;2022-11-20T01:36:24;0.20;99.90
20827;DHT22;10574;52.508;13.236;2022-11-20T01:38:53;0.20;99.90
20827;DHT22;10574;52.508;13.236;2022-11-20T01:41:22;0.20;99.90
20827;DHT22;10574;52.508;13.236;2022-11-20T01:44:10;0.20;99.90
20827;DHT22;10574;52.508;13.236;2022-11-20T01:46:59;0.20;99.90
20827;DHT22;10574;52.508;13.236;2022-11-20T01:49:42;0.10;99.90
20827;DHT22;10574;52.508;13.236;2022-11-20T01:52:17;0.10;99.90
20827;DHT22;10574;52.508;13.236;2022-11-20T01:54:44;0.10;99.90
20827;DHT22;10574;52.508;13.236;2022-11-20T01:57:12;0.00;99.90
20827;DHT22;10574;52.508;13.236;2022-11-20T01:59:44;0.00;99.90
20827;DHT22;10574;52.508;13.236;2022-11-20T02:02:11;0.00;99.90
20827;DHT22;10574;52.508;13.236;2022-11-20T02:04:39;0.00;99.90
20827;DHT22;10574;52.508;13.236;2022-11-20T02:07:07;-0.10;99.90
20827;DHT22;10574;52.508;13.236;2022-11-20T02:09:35;0.00;99.90
20827;DHT22;10574;52.508;13.236;2022-11-20T02:12:03;-0.10;99.90
20827;DHT22;10574;52.508;13.236;2022-11-20T02:14:31;-0.10;99.90
20827;DHT22;10574;52.508;13.236;2022-11-20T02:16:59;-0.10;99.90
20827;DHT22;10574;52.508;13.236;2022-11-20T02:19:28;-0.10;99.90
20827;DHT22;10574;52.508;13.236;2022-11-20T02:22:10;-0.10;99.90
20827;DHT22;10574;52.508;13.236;2022-11-20T02:24:37;-0.10;99.90
20827;DHT22;10574;52.508;13.236;2022-11-20T02:27:15;-0.20;99.90
20827;DHT22;10574;52.508;13.236;2022-11-20T02:29:52;-0.10;99.90
20827;DHT22;10574;52.508;13.236;2022-11-20T02:32:25;-0.10;99.90
20827;DHT22;10574;52.508;13.236;2022-11-20T02:34:54;-0.20;99.90
20827;DHT22;10574;52.508;13.236;2022-11-20T02:37:26;-0.20;99.90
20827;DHT22;10574;52.508;13.236;2022-11-20T02:39:53;-0.20;99.90
20827;DHT22;10574;52.508;13.236;2022-11-20T02:42:20;-0.20;99.90
20827;DHT22;10574;52.508;13.236;2022-11-20T02:44:48;-0.20;99.90
20827;DHT22;10574;52.508;13.236;2022-11-20T02:47:16;-0.20;99.90
20827;DHT22;10574;52.508;13.236;2022-11-20T02:49:43;-0.20;99.90
20827;DHT22;10574;52.508;13.236;2022-11-20T02:52:11;-0.20;99.90
20827;DHT22;10574;52.508;13.236;2022-11-20T02:54:39;-0.20;99.90
20827;DHT22;10574;52.508;13.236;2022-11-20T02:57:07;-0.20;99.90
20827;DHT22;10574;52.508;13.236;2022-11-20T02:59:34;-0.20;99.90
20827;DHT22;10574;52.508;13.236;2022-11-20T03:02:02;-0.30;99.90
20827;DHT22;10574;52.508;13.236;2022-11-20T03:04:30;-0.20;99.90
20827;DHT22;10574;52.508;13.236;2022-11-20T03:06:57;-0.20;99.90
20827;DHT22;10574;52.508;13.236;2022-11-20T03:09:25;-0.20;99.90
20827;DHT22;10574;52.508;13.236;2022-11-20T03:11:53;-0.20;99.90
20827;DHT22;10574;52.508;13.236;2022-11-20T03:14:20;-0.20;99.90
20827;DHT22;10574;52.508;13.236;2022-11-20T03:16:48;-0.20;99.90
20827;DHT22;10574;52.508;13.236;2022-11-20T03:19:16;-0.20;99.90
20827;DHT22;10574;52.508;13.236;2022-11-20T03:21:44;-0.20;99.90
20827;DHT22;10574;52.508;13.236;2022-11-20T03:24:12;-0.20;99.90
20827;DHT22;10574;52.508;13.236;2022-11-20T03:26:40;-0.20;99.90
20827;DHT22;10574;52.508;13.236;2022-11-20T03:29:07;-0.20;99.90
20827;DHT22;10574;52.508;13.236;2022-11-20T03:31:37;-0.20;99.90
20827;DHT22;10574;52.508;13.236;2022-11-20T03:34:08;-0.20;99.90
20827;DHT22;10574;52.508;13.236;2022-11-20T03:36:38;-0.20;99.90
20827;DHT22;10574;52.508;13.236;2022-11-20T03:39:06;-0.20;99.90
20827;DHT22;10574;52.508;13.236;2022-11-20T03:41:39;-0.20;99.90
20827;DHT22;10574;52.508;13.236;2022-11-20T03:44:09;-0.20;99.90
20827;DHT22;10574;52.508;13.236;2022-11-20T03:46:37;-0.20;99.90
20827;DHT22;10574;52.508;13.236;2022-11-20T03:49:05;-0.20;99.90
20827;DHT22;10574;52.508;13.236;2022-11-20T03:51:34;-0.30;99.90
20827;DHT22;10574;52.508;13.236;2022-11-20T03:54:05;-0.30;99.90
20827;DHT22;10574;52.508;13.236;2022-11-20T03:56:35;-0.30;99.90
20827;DHT22;10574;52.508;13.236;2022-11-20T03:59:04;-0.40;99.90
20827;DHT22;10574;52.508;13.236;2022-11-20T04:01:34;-0.40;99.90
20827;DHT22;10574;52.508;13.236;2022-11-20T04:04:02;-0.40;99.90
20827;DHT22;10574;52.508;13.236;2022-11-20T04:06:36;-0.40;99.90
20827;DHT22;10574;52.508;13.236;2022-11-20T04:09:00;-0.50;99.90
20827;DHT22;10574;52.508;13.236;2022-11-20T04:11:31;-0.50;99.90
20827;DHT22;10574;52.508;13.236;2022-11-20T04:14:01;-0.50;99.90
20827;DHT22;10574;52.508;13.236;2022-11-20T04:16:31;-0.50;99.90
20827;DHT22;10574;52.508;13.236;2022-11-20T04:19:01;-0.40;99.90
20827;DHT22;10574;52.508;13.236;2022-11-20T04:21:29;-0.40;99.90
20827;DHT22;10574;52.508;13.236;2022-11-20T04:23:57;-0.40;99.90
20827;DHT22;10574;52.508;13.236;2022-11-20T04:26:26;-0.40;99.90
20827;DHT22;10574;52.508;13.236;2022-11-20T04:28:54;-0.40;99.90
20827;DHT22;10574;52.508;13.236;2022-11-20T04:31:25;-0.40;99.90
20827;DHT22;10574;52.508;13.236;2022-11-20T04:33:53;-0.40;99.90
20827;DHT22;10574;52.508;13.236;2022-11-20T04:36:23;-0.30;99.90
20827;DHT22;10574;52.508;13.236;2022-11-20T04:38:55;-0.30;99.90
20827;DHT22;10574;52.508;13.236;2022-11-20T04:41:25;-0.30;99.90
20827;DHT22;10574;52.508;13.236;2022-11-20T04:43:55;-0.30;99.90
20827;DHT22;10574;52.508;13.236;2022-11-20T04:46:26;-0.20;99.90
20827;DHT22;10574;52.508;13.236;2022-11-20T04:48:54;-0.30;99.90
20827;DHT22;10574;52.508;13.236;2022-11-20T04:51:22;-0.30;99.90
20827;DHT22;10574;52.508;13.236;2022-11-20T04:53:50;-0.20;99.90
20827;DHT22;10574;52.508;13.236;2022-11-20T04:56:18;-0.30;99.90
20827;DHT22;10574;52.508;13.236;2022-11-20T04:58:46;-0.20;99.90
20827;DHT22;10574;52.508;13.236;2022-11-20T05:01:16;-0.20;99.90
20827;DHT22;10574;52.508;13.236;2022-11-20T05:03:44;-0.20;99.90
20827;DHT22;10574;52.508;13.236;2022-11-20T05:06:14;-0.20;99.90
20827;DHT22;10574;52.508;13.236;2022-11-20T05:08:42;-0.20;99.90
20827;DHT22;10574;52.508;13.236;2022-11-20T05:11:12;-0.20;99.90
20827;DHT22;10574;52.508;13.236;2022-11-20T05:13:41;-0.20;99.90
20827;DHT22;10574;52.508;13.236;2022-11-20T05:16:13;-0.20;99.90
20827;DHT22;10574;52.508;13.236;2022-11-20T05:18:42;-0.10;99.90
20827;DHT22;10574;52.508;13.236;2022-11-20T05:21:11;-0.10;99.90
20827;DHT22;10574;52.508;13.236;2022-11-20T05:23:39;-0.10;99.90
20827;DHT22;10574;52.508;13.236;2022-11-20T05:26:12;-0.10;99.90
20827;DHT22;10574;52.508;13.236;2022-11-20T05:28:38;-0.10;99.90
20827;DHT22;10574;52.508;13.236;2022-11-20T05:31:11;0.00;99.90
20827;DHT22;10574;52.508;13.236;2022-11-20T05:33:43;0.00;99.90
20827;DHT22;10574;52.508;13.236;2022-11-20T05:36:12;-0.10;99.90
20827;DHT22;10574;52.508;13.236;2022-11-20T05:38:41;0.00;99.90
20827;DHT22;10574;52.508;13.236;2022-11-20T05:41:11;0.00;99.90
20827;DHT22;10574;52.508;13.236;2022-11-20T05:43:41;0.00;99.90
20827;DHT22;10574;52.508;13.236;2022-11-20T05:46:11;0.00;99.90
20827;DHT22;10574;52.508;13.236;2022-11-20T05:48:40;0.00;99.90
20827;DHT22;10574;52.508;13.236;2022-11-20T05:51:11;0.00;99.90
20827;DHT22;10574;52.508;13.236;2022-11-20T05:53:39;0.00;99.90
20827;DHT22;10574;52.508;13.236;2022-11-20T05:56:12;0.10;99.90
20827;DHT22;10574;52.508;13.236;2022-11-20T05:58:40;0.10;99.90
20827;DHT22;10574;52.508;13.236;2022-11-20T06:03:43;0.10;99.90
20827;DHT22;10574;52.508;13.236;2022-11-20T06:06:13;0.10;99.90
20827;DHT22;10574;52.508;13.236;2022-11-20T06:08:41;0.10;99.90
20827;DHT22;10574;52.508;13.236;2022-11-20T06:11:10;0.10;99.90
20827;DHT22;10574;52.508;13.236;2022-11-20T06:13:39;0.10;99.90
20827;DHT22;10574;52.508;13.236;2022-11-20T06:16:07;0.10;99.90
20827;DHT22;10574;52.508;13.236;2022-11-20T06:18:35;0.10;99.90
20827;DHT22;10574;52.508;13.236;2022-11-20T06:21:11;0.10;99.90
20827;DHT22;10574;52.508;13.236;2022-11-20T06:23:39;0.10;99.90
20827;DHT22;10574;52.508;13.236;2022-11-20T06:26:10;0.00;99.90
20827;DHT22;10574;52.508;13.236;2022-11-20T06:28:38;0.00;99.90
20827;DHT22;10574;52.508;13.236;2022-11-20T06:31:06;0.10;99.90
20827;DHT22;10574;52.508;13.236;2022-11-20T06:33:34;0.10;99.90
20827;DHT22;10574;52.508;13.236;2022-11-20T06:36:02;0.10;99.90
20827;DHT22;10574;52.508;13.236;2022-11-20T06:38:30;0.10;99.90
20827;DHT22;10574;52.508;13.236;2022-11-20T06:40:58;0.10;99.90
20827;DHT22;10574;52.508;13.236;2022-11-20T06:43:28;0.10;99.90
20827;DHT22;10574;52.508;13.236;2022-11-20T06:45:57;0.10;99.90
20827;DHT22;10574;52.508;13.236;2022-11-20T06:48:29;0.20;99.90
20827;DHT22;10574;52.508;13.236;2022-11-20T06:50:57;0.20;99.90
20827;DHT22;10574;52.508;13.236;2022-11-20T06:53:25;0.10;99.90
20827;DHT22;10574;52.508;13.236;2022-11-20T06:55:55;0.20;99.90
20827;DHT22;10574;52.508;13.236;2022-11-20T06:58:29;0.20;99.90
20827;DHT22;10574;52.508;13.236;2022-11-20T07:01:01;0.20;99.90
20827;DHT22;10574;52.508;13.236;2022-11-20T07:03:29;0.20;99.90
20827;DHT22;10574;52.508;13.236;2022-11-20T07:05:58;0.20;99.90
20827;DHT22;10574;52.508;13.236;2022-11-20T07:08:27;0.20;99.90
20827;DHT22;10574;52.508;13.236;2022-11-20T07:10:57;0.20;99.90
20827;DHT22;10574;52.508;13.236;2022-11-20T07:13:25;0.20;99.90
20827;DHT22;10574;52.508;13.236;2022-11-20T07:15:53;0.20;99.90
20827;DHT22;10574;52.508;13.236;2022-11-20T07:18:21;0.20;99.90
20827;DHT22;10574;52.508;13.236;2022-11-20T07:20:49;0.30;99.90
20827;DHT22;10574;52.508;13.236;2022-11-20T07:23:17;0.30;99.90
20827;DHT22;10574;52.508;13.236;2022-11-20T07:25:45;0.30;99.90
20827;DHT22;10574;52.508;13.236;2022-11-20T07:28:12;0.30;99.90
20827;DHT22;10574;52.508;13.236;2022-11-20T07:30:40;0.20;99.90
20827;DHT22;10574;52.508;13.236;2022-11-20T07:33:08;0.20;99.90
20827;DHT22;10574;52.508;13.236;2022-11-20T07:35:36;0.20;99.90
20827;DHT22;10574;52.508;13.236;2022-11-20T07:38:03;0.20;99.90
20827;DHT22;10574;52.508;13.236;2022-11-20T07:40:31;0.30;99.90
20827;DHT22;10574;52.508;13.236;2022-11-20T07:42:59;0.30;99.90
20827;DHT22;10574;52.508;13.236;2022-11-20T07:45:26;0.30;99.90
20827;DHT22;10574;52.508;13.236;2022-11-20T07:47:54;0.30;99.90
20827;DHT22;10574;52.508;13.236;2022-11-20T07:50:22;0.30;99.90
20827;DHT22;10574;52.508;13.236;2022-11-20T07:52:50;0.30;99.90
20827;DHT22;10574;52.508;13.236;2022-11-20T07:55:18;0.40;99.90
20827;DHT22;10574;52.508;13.236;2022-11-20T07:57:46;0.40;99.90
20827;DHT22;10574;52.508;13.236;2022-11-20T08:00:15;0.30;99.90
20827;DHT22;10574;52.508;13.236;2022-11-20T08:02:43;0.30;99.90
20827;DHT22;10574;52.508;13.236;2022-11-20T08:05:11;0.30;99.90
20827;DHT22;10574;52.508;13.236;2022-11-20T08:07:40;0.30;99.90
20827;DHT22;10574;52.508;13.236;2022-11-20T08:10:10;0.30;99.90
20827;DHT22;10574;52.508;13.236;2022-11-20T08:12:51;0.30;99.90
20827;DHT22;10574;52.508;13.236;2022-11-20T08:15:32;0.40;99.90
20827;DHT22;10574;52.508;13.236;2022-11-20T08:18:09;0.30;99.90
20827;DHT22;10574;52.508;13.236;2022-11-20T08:20:34;0.40;99.90
20827;DHT22;10574;52.508;13.236;2022-11-20T08:23:05;0.40;99.90
20827;DHT22;10574;52.508;13.236;2022-11-20T08:25:34;0.40;99.90
20827;DHT22;10574;52.508;13.236;2022-11-20T08:28:05;0.40;99.90
20827;DHT22;10574;52.508;13.236;2022-11-20T08:30:34;0.40;99.90
20827;DHT22;10574;52.508;13.236;2022-11-20T08:33:04;0.40;99.90
20827;DHT22;10574;52.508;13.236;2022-11-20T08:35:38;0.40;99.90
20827;DHT22;10574;52.508;13.236;2022-11-20T08:38:09;0.40;99.90
20827;DHT22;10574;52.508;13.236;2022-11-20T08:40:36;0.30;99.90
20827;DHT22;10574;52.508;13.236;2022-11-20T08:43:04;0.40;99.90
20827;DHT22;10574;52.508;13.236;2022-11-20T08:45:32;0.40;99.90
20827;DHT22;10574;52.508;13.236;2022-11-20T08:48:01;0.50;99.90
20827;DHT22;10574;52.508;13.236;2022-11-20T08:50:29;0.50;99.90
20827;DHT22;10574;52.508;13.236;2022-11-20T08:53:07;0.60;99.90
20827;DHT22;10574;52.508;13.236;2022-11-20T08:55:31;0.60;99.90
20827;DHT22;10574;52.508;13.236;2022-11-20T08:58:04;0.70;99.90
20827;DHT22;10574;52.508;13.236;2022-11-20T09:00:32;0.70;99.90
20827;DHT22;10574;52.508;13.236;2022-11-20T09:03:06;0.80;99.90
20827;DHT22;10574;52.508;13.236;2022-11-20T09:05:30;0.70;99.90
20827;DHT22;10574;52.508;13.236;2022-11-20T09:07:58;0.80;99.90
20827;DHT22;10574;52.508;13.236;2022-11-20T09:10:26;0.70;99.90
20827;DHT22;10574;52.508;13.236;2022-11-20T09:12:55;0.80;99.90
20827;DHT22;10574;52.508;13.236;2022-11-20T09:15:23;0.80;99.90
20827;DHT22;10574;52.508;13.236;2022-11-20T09:17:56;0.80;99.90
20827;DHT22;10574;52.508;13.236;2022-11-20T09:20:25;0.80;99.90
20827;DHT22;10574;52.508;13.236;2022-11-20T09:22:53;0.80;99.90
20827;DHT22;10574;52.508;13.236;2022-11-20T09:25:21;0.80;99.90
20827;DHT22;10574;52.508;13.236;2022-11-20T09:27:57;0.80;99.90
20827;DHT22;10574;52.508;13.236;2022-11-20T09:30:26;0.90;99.90
20827;DHT22;10574;52.508;13.236;2022-11-20T09:32:54;0.90;99.90
20827;DHT22;10574;52.508;13.236;2022-11-20T09:35:22;0.90;99.90
20827;DHT22;10574;52.508;13.236;2022-11-20T09:37:49;0.90;99.90
20827;DHT22;10574;52.508;13.236;2022-11-20T09:40:23;0.90;99.90
20827;DHT22;10574;52.508;13.236;2022-11-20T09:48:26;1.00;99.90
20827;DHT22;10574;52.508;13.236;2022-11-20T09:56:11;1.20;99.90
20827;DHT22;10574;52.508;13.236;2022-11-20T09:58:41;1.20;99.90
20827;DHT22;10574;52.508;13.236;2022-11-20T10:01:23;1.10;99.90
20827;DHT22;10574;52.508;13.236;2022-11-20T10:04:05;1.10;99.90
20827;DHT22;10574;52.508;13.236;2022-11-20T10:06:39;1.10;99.90
20827;DHT22;10574;52.508;13.236;2022-11-20T10:09:20;1.00;99.90
20827;DHT22;10574;52.508;13.236;2022-11-20T10:12:13;1.10;99.90
20827;DHT22;10574;52.508;13.236;2022-11-20T10:14:46;1.10;99.90
20827;DHT22;10574;52.508;13.236;2022-11-20T10:17:31;1.20;99.90
20827;DHT22;10574;52.508;13.236;2022-11-20T10:20:26;1.20;99.90
20827;DHT22;10574;52.508;13.236;2022-11-20T10:25:43;1.30;99.90
20827;DHT22;10574;52.508;13.236;2022-11-20T10:31:03;1.30;99.90
20827;DHT22;10574;52.508;13.236;2022-11-20T10:33:24;1.30;99.90
20827;DHT22;10574;52.508;13.236;2022-11-20T10:35:57;1.40;99.90
20827;DHT22;10574;52.508;13.236;2022-11-20T10:38:28;1.30;99.90
20827;DHT22;10574;52.508;13.236;2022-11-20T10:40:57;1.30;99.90
20827;DHT22;10574;52.508;13.236;2022-11-20T10:43:34;1.30;99.90
20827;DHT22;10574;52.508;13.236;2022-11-20T10:46:08;1.40;99.90
20827;DHT22;10574;52.508;13.236;2022-11-20T10:48:33;1.30;99.90
20827;DHT22;10574;52.508;13.236;2022-11-20T10:54:10;1.30;99.90
20827;DHT22;10574;52.508;13.236;2022-11-20T10:56:45;1.50;99.90
20827;DHT22;10574;52.508;13.236;2022-11-20T11:02:18;1.50;99.90
20827;DHT22;10574;52.508;13.236;2022-11-20T11:04:55;1.60;99.90
20827;DHT22;10574;52.508;13.236;2022-11-20T11:07:30;1.60;99.90
20827;DHT22;10574;52.508;13.236;2022-11-20T11:09:57;1.70;99.90
20827;DHT22;10574;52.508;13.236;2022-11-20T11:12:27;1.70;99.90
20827;DHT22;10574;52.508;13.236;2022-11-20T11:14:57;1.70;99.90
20827;DHT22;10574;52.508;13.236;2022-11-20T11:17:34;1.70;99.90
20827;DHT22;10574;52.508;13.236;2022-11-20T11:20:17;1.60;99.90
20827;DHT22;10574;52.508;13.236;2022-11-20T11:22:48;1.60;99.90
20827;DHT22;10574;52.508;13.236;2022-11-20T11:27:54;1.70;99.90
20827;DHT22;10574;52.508;13.236;2022-11-20T11:30:23;1.60;99.90
20827;DHT22;10574;52.508;13.236;2022-11-20T11:33:06;1.60;99.90
20827;DHT22;10574;52.508;13.236;2022-11-20T11:35:38;1.50;99.90
20827;DHT22;10574;52.508;13.236;2022-11-20T11:38:06;1.40;99.90
20827;DHT22;10574;52.508;13.236;2022-11-20T11:40:38;1.30;99.90
20827;DHT22;10574;52.508;13.236;2022-11-20T11:43:16;1.30;99.90
20827;DHT22;10574;52.508;13.236;2022-11-20T11:45:38;1.10;99.90
20827;DHT22;10574;52.508;13.236;2022-11-20T11:48:07;1.10;99.90
20827;DHT22;10574;52.508;13.236;2022-11-20T11:50:35;1.10;99.90
20827;DHT22;10574;52.508;13.236;2022-11-20T11:53:17;1.10;99.90
20827;DHT22;10574;52.508;13.236;2022-11-20T12:01:43;1.40;99.90
20827;DHT22;10574;52.508;13.236;2022-11-20T12:07:07;1.30;99.90
20827;DHT22;10574;52.508;13.236;2022-11-20T12:09:35;1.30;99.90
20827;DHT22;10574;52.508;13.236;2022-11-20T12:12:12;1.30;99.90
20827;DHT22;10574;52.508;13.236;2022-11-20T12:14:42;1.40;99.90
20827;DHT22;10574;52.508;13.236;2022-11-20T12:17:12;1.50;99.90
20827;DHT22;10574;52.508;13.236;2022-11-20T12:19:40;1.50;99.90
20827;DHT22;10574;52.508;13.236;2022-11-20T12:22:31;1.60;99.90
20827;DHT22;10574;52.508;13.236;2022-11-20T12:30:18;1.60;99.90
20827;DHT22;10574;52.508;13.236;2022-11-20T12:33:08;1.60;99.90
20827;DHT22;10574;52.508;13.236;2022-11-20T12:35:46;1.60;99.90
20827;DHT22;10574;52.508;13.236;2022-11-20T12:43:39;1.50;99.90
20827;DHT22;10574;52.508;13.236;2022-11-20T12:52:00;1.50;99.90
20827;DHT22;10574;52.508;13.236;2022-11-20T12:57:39;1.50;99.90
20827;DHT22;10574;52.508;13.236;2022-11-20T13:00:10;1.40;99.90
20827;DHT22;10574;52.508;13.236;2022-11-20T13:08:08;1.20;99.90
20827;DHT22;10574;52.508;13.236;2022-11-20T13:10:47;1.10;99.90
20827;DHT22;10574;52.508;13.236;2022-11-20T13:13:23;1.10;99.90
20827;DHT22;10574;52.508;13.236;2022-11-20T13:18:21;1.00;99.90
20827;DHT22;10574;52.508;13.236;2022-11-20T13:20:49;1.10;99.90
20827;DHT22;10574;52.508;13.236;2022-11-20T13:23:25;1.10;99.90
20827;DHT22;10574;52.508;13.236;2022-11-20T13:26:05;1.10;99.90
20827;DHT22;10574;52.508;13.236;2022-11-20T13:28:33;1.20;99.90
20827;DHT22;10574;52.508;13.236;2022-11-20T13:31:01;1.30;99.90
20827;DHT22;10574;52.508;13.236;2022-11-20T13:33:37;1.30;99.90
20827;DHT22;10574;52.508;13.236;2022-11-20T13:36:23;1.40;99.90
20827;DHT22;10574;52.508;13.236;2022-11-20T13:38:52;1.30;99.90
20827;DHT22;10574;52.508;13.236;2022-11-20T13:41:29;1.30;99.90
20827;DHT22;10574;52.508;13.236;2022-11-20T13:44:14;1.20;99.90
20827;DHT22;10574;52.508;13.236;2022-11-20T13:46:46;1.20;99.90
20827;DHT22;10574;52.508;13.236;2022-11-20T13:49:34;1.20;99.90
20827;DHT22;10574;52.508;13.236;2022-11-20T13:58:04;1.20;99.90
20827;DHT22;10574;52.508;13.236;2022-11-20T14:00:29;1.20;99.90
20827;DHT22;10574;52.508;13.236;2022-11-20T14:03:18;1.20;99.90
20827;DHT22;10574;52.508;13.236;2022-11-20T14:06:00;1.30;99.90
20827;DHT22;10574;52.508;13.236;2022-11-20T14:08:35;1.40;99.90
20827;DHT22;10574;52.508;13.236;2022-11-20T14:11:04;1.30;99.90
20827;DHT22;10574;52.508;13.236;2022-11-20T14:13:32;1.30;99.90
20827;DHT22;10574;52.508;13.236;2022-11-20T14:16:00;1.30;99.90
20827;DHT22;10574;52.508;13.236;2022-11-20T14:18:27;1.30;99.90
20827;DHT22;10574;52.508;13.236;2022-11-20T14:20:55;1.30;99.90
20827;DHT22;10574;52.508;13.236;2022-11-20T14:23:28;1.20;99.90
20827;DHT22;10574;52.508;13.236;2022-11-20T14:25:56;1.20;99.90
20827;DHT22;10574;52.508;13.236;2022-11-20T14:28:26;1.20;99.90
20827;DHT22;10574;52.508;13.236;2022-11-20T14:30:55;1.20;99.90
20827;DHT22;10574;52.508;13.236;2022-11-20T14:33:25;1.10;99.90
20827;DHT22;10574;52.508;13.236;2022-11-20T14:35:55;1.10;99.90
20827;DHT22;10574;52.508;13.236;2022-11-20T14:38:28;1.00;99.90
20827;DHT22;10574;52.508;13.236;2022-11-20T14:41:07;1.10;99.90
20827;DHT22;10574;52.508;13.236;2022-11-20T14:43:36;1.00;99.90
20827;DHT22;10574;52.508;13.236;2022-11-20T14:46:07;1.00;99.90
20827;DHT22;10574;52.508;13.236;2022-11-20T14:48:55;0.90;99.90
20827;DHT22;10574;52.508;13.236;2022-11-20T14:54:07;0.90;99.90
20827;DHT22;10574;52.508;13.236;2022-11-20T14:56:25;0.90;99.90
20827;DHT22;10574;52.508;13.236;2022-11-20T14:58:59;0.90;99.90
20827;DHT22;10574;52.508;13.236;2022-11-20T15:01:29;0.90;99.90
20827;DHT22;10574;52.508;13.236;2022-11-20T15:04:05;0.90;99.90
20827;DHT22;10574;52.508;13.236;2022-11-20T15:06:31;0.90;99.90
20827;DHT22;10574;52.508;13.236;2022-11-20T15:08:59;0.90;99.90
20827;DHT22;10574;52.508;13.236;2022-11-20T15:11:32;0.90;99.90
20827;DHT22;10574;52.508;13.236;2022-11-20T15:14:06;0.90;99.90
20827;DHT22;10574;52.508;13.236;2022-11-20T15:16:34;0.90;99.90
20827;DHT22;10574;52.508;13.236;2022-11-20T15:19:03;0.90;99.90
20827;DHT22;10574;52.508;13.236;2022-11-20T15:21:32;0.90;99.90
20827;DHT22;10574;52.508;13.236;2022-11-20T15:24:00;0.90;99.90
20827;DHT22;10574;52.508;13.236;2022-11-20T15:26:28;0.80;99.90
20827;DHT22;10574;52.508;13.236;2022-11-20T15:28:55;0.80;99.90
20827;DHT22;10574;52.508;13.236;2022-11-20T15:31:23;0.90;99.90
20827;DHT22;10574;52.508;13.236;2022-11-20T15:33:51;0.80;99.90
20827;DHT22;10574;52.508;13.236;2022-11-20T15:36:19;0.80;99.90
20827;DHT22;10574;52.508;13.236;2022-11-20T15:38:46;0.80;99.90
20827;DHT22;10574;52.508;13.236;2022-11-20T15:41:14;0.90;99.90
20827;DHT22;10574;52.508;13.236;2022-11-20T15:43:42;0.90;99.90
20827;DHT22;10574;52.508;13.236;2022-11-20T15:46:12;0.80;99.90
20827;DHT22;10574;52.508;13.236;2022-11-20T15:48:42;0.80;99.90
20827;DHT22;10574;52.508;13.236;2022-11-20T15:51:29;0.90;99.90
20827;DHT22;10574;52.508;13.236;2022-11-20T15:53:57;0.80;99.90
20827;DHT22;10574;52.508;13.236;2022-11-20T15:56:25;0.70;99.90
20827;DHT22;10574;52.508;13.236;2022-11-20T15:58:53;0.70;99.90
20827;DHT22;10574;52.508;13.236;2022-11-20T16:01:22;0.60;99.90
20827;DHT22;10574;52.508;13.236;2022-11-20T16:03:50;0.60;99.90
20827;DHT22;10574;52.508;13.236;2022-11-20T16:06:17;0.50;99.90
20827;DHT22;10574;52.508;13.236;2022-11-20T16:08:45;0.40;99.90
20827;DHT22;10574;52.508;13.236;2022-11-20T16:11:14;0.40;99.90
20827;DHT22;10574;52.508;13.236;2022-11-20T16:14:02;0.40;99.90
20827;DHT22;10574;52.508;13.236;2022-11-20T16:16:48;0.40;99.90
20827;DHT22;10574;52.508;13.236;2022-11-20T16:19:15;0.30;99.90
20827;DHT22;10574;52.508;13.236;2022-11-20T16:21:44;0.30;99.90
20827;DHT22;10574;52.508;13.236;2022-11-20T16:24:13;0.20;99.90
20827;DHT22;10574;52.508;13.236;2022-11-20T16:26:42;0.20;99.90
20827;DHT22;10574;52.508;13.236;2022-11-20T16:29:09;0.20;99.90
20827;DHT22;10574;52.508;13.236;2022-11-20T16:31:37;0.20;99.90
20827;DHT22;10574;52.508;13.236;2022-11-20T16:34:07;0.20;99.90
20827;DHT22;10574;52.508;13.236;2022-11-20T16:36:35;0.10;99.90
20827;DHT22;10574;52.508;13.236;2022-11-20T16:39:03;0.20;99.90
20827;DHT22;10574;52.508;13.236;2022-11-20T16:41:33;0.30;99.90
20827;DHT22;10574;52.508;13.236;2022-11-20T16:44:06;0.30;99.90
20827;DHT22;10574;52.508;13.236;2022-11-20T16:46:32;0.30;99.90
20827;DHT22;10574;52.508;13.236;2022-11-20T16:49:02;0.40;99.90
20827;DHT22;10574;52.508;13.236;2022-11-20T16:51:31;0.50;99.90
20827;DHT22;10574;52.508;13.236;2022-11-20T16:54:00;0.50;99.90
20827;DHT22;10574;52.508;13.236;2022-11-20T16:56:28;0.50;99.90
20827;DHT22;10574;52.508;13.236;2022-11-20T16:58:57;0.50;99.90
20827;DHT22;10574;52.508;13.236;2022-11-20T17:01:26;0.50;99.90